sensor_id;sensor_type;location;lat;lon;timestamp;P1;durP1;ratioP1;P2;durP2;ratioP2
13605;SDS011;6874;52.084;5.090;2023-07-08T00:00:19;25.00;;;24.20;;
13605;SDS011;6874;52.084;5.090;2023-07-08T00:02:45;25.53;;;24.73;;
13605;SDS011;6874;52.084;5.090;2023-07-08T00:05:12;24.03;;;23.33;;
13605;SDS011;6874;52.084;5.090;2023-07-08T00:07:38;22.53;;;21.83;;
13605;SDS011;6874;52.084;5.090;2023-07-08T00:10:26;23.97;;;23.27;;
13605;SDS011;6874;52.084;5.090;2023-07-08T00:12:52;20.00;;;19.40;;
13605;SDS011;6874;52.084;5.090;2023-07-08T00:15:21;22.63;;;21.93;;
13605;SDS011;6874;52.084;5.090;2023-07-08T00:17:50;22.77;;;22.07;;
13605;SDS011;6874;52.084;5.090;2023-07-08T00:23:04;24.03;;;23.30;;
13605;SDS011;6874;52.084;5.090;2023-07-08T00:25:31;23.63;;;22.93;;
13605;SDS011;6874;52.084;5.090;2023-07-08T00:27:57;25.60;;;24.80;;
13605;SDS011;6874;52.084;5.090;2023-07-08T00:30:24;26.93;;;26.10;;
13605;SDS011;6874;52.084;5.090;2023-07-08T00:32:53;31.50;;;30.50;;
13605;SDS011;6874;52.084;5.090;2023-07-08T00:35:33;30.23;;;29.27;;
13605;SDS011;6874;52.084;5.090;2023-07-08T00:37:59;32.47;;;31.47;;
13605;SDS011;6874;52.084;5.090;2023-07-08T00:40:29;32.73;;;31.73;;
13605;SDS011;6874;52.084;5.090;2023-07-08T00:42:58;38.27;;;37.07;;
13605;SDS011;6874;52.084;5.090;2023-07-08T00:48:05;49.03;;;47.47;;
13605;SDS011;6874;52.084;5.090;2023-07-08T00:50:38;57.10;;;55.27;;
13605;SDS011;6874;52.084;5.090;2023-07-08T00:56:07;71.47;;;69.17;;
13605;SDS011;6874;52.084;5.090;2023-07-08T00:58:48;81.43;;;78.83;;
13605;SDS011;6874;52.084;5.090;2023-07-08T01:01:27;89.90;;;87.03;;
13605;SDS011;6874;52.084;5.090;2023-07-08T01:03:56;102.10;;;98.80;;
13605;SDS011;6874;52.084;5.090;2023-07-08T01:06:26;102.33;;;99.03;;
13605;SDS011;6874;52.084;5.090;2023-07-08T01:08:56;106.03;;;102.63;;
13605;SDS011;6874;52.084;5.090;2023-07-08T01:11:27;101.43;;;98.13;;
13605;SDS011;6874;52.084;5.090;2023-07-08T01:13:53;114.47;;;110.77;;
13605;SDS011;6874;52.084;5.090;2023-07-08T01:16:19;113.73;;;110.10;;
13605;SDS011;6874;52.084;5.090;2023-07-08T01:18:44;110.67;;;107.13;;
13605;SDS011;6874;52.084;5.090;2023-07-08T01:21:32;105.33;;;101.93;;
13605;SDS011;6874;52.084;5.090;2023-07-08T01:24:00;111.53;;;107.93;;
13605;SDS011;6874;52.084;5.090;2023-07-08T01:26:27;109.77;;;106.20;;
13605;SDS011;6874;52.084;5.090;2023-07-08T01:28:55;116.17;;;112.40;;
13605;SDS011;6874;52.084;5.090;2023-07-08T01:31:22;113.73;;;110.03;;
13605;SDS011;6874;52.084;5.090;2023-07-08T01:33:48;111.80;;;108.17;;
13605;SDS011;6874;52.084;5.090;2023-07-08T01:36:15;114.10;;;110.40;;
13605;SDS011;6874;52.084;5.090;2023-07-08T01:38:42;121.10;;;117.17;;
13605;SDS011;6874;52.084;5.090;2023-07-08T01:41:13;119.77;;;115.83;;
13605;SDS011;6874;52.084;5.090;2023-07-08T01:43:40;121.93;;;117.93;;
13605;SDS011;6874;52.084;5.090;2023-07-08T01:46:16;126.70;;;122.60;;
13605;SDS011;6874;52.084;5.090;2023-07-08T01:48:49;121.00;;;117.03;;
13605;SDS011;6874;52.084;5.090;2023-07-08T01:51:21;132.77;;;128.37;;
13605;SDS011;6874;52.084;5.090;2023-07-08T01:53:47;132.77;;;128.33;;
13605;SDS011;6874;52.084;5.090;2023-07-08T01:56:13;133.73;;;129.27;;
13605;SDS011;6874;52.084;5.090;2023-07-08T01:58:39;134.07;;;129.57;;
13605;SDS011;6874;52.084;5.090;2023-07-08T02:01:05;135.73;;;131.23;;
13605;SDS011;6874;52.084;5.090;2023-07-08T02:03:31;132.73;;;128.30;;
13605;SDS011;6874;52.084;5.090;2023-07-08T02:05:57;130.57;;;126.17;;
13605;SDS011;6874;52.084;5.090;2023-07-08T02:08:23;131.03;;;126.67;;
13605;SDS011;6874;52.084;5.090;2023-07-08T02:10:51;122.97;;;118.87;;
13605;SDS011;6874;52.084;5.090;2023-07-08T02:13:20;122.67;;;118.57;;
13605;SDS011;6874;52.084;5.090;2023-07-08T02:15:47;125.43;;;121.23;;
13605;SDS011;6874;52.084;5.090;2023-07-08T02:18:13;113.80;;;110.00;;
13605;SDS011;6874;52.084;5.090;2023-07-08T02:20:39;117.80;;;113.93;;
13605;SDS011;6874;52.084;5.090;2023-07-08T02:23:05;107.43;;;103.90;;
13605;SDS011;6874;52.084;5.090;2023-07-08T02:25:31;100.80;;;97.50;;
13605;SDS011;6874;52.084;5.090;2023-07-08T02:27:56;94.90;;;91.80;;
13605;SDS011;6874;52.084;5.090;2023-07-08T02:30:25;93.00;;;90.00;;
13605;SDS011;6874;52.084;5.090;2023-07-08T02:32:51;87.17;;;84.33;;
13605;SDS011;6874;52.084;5.090;2023-07-08T02:35:25;80.57;;;77.93;;
13605;SDS011;6874;52.084;5.090;2023-07-08T02:37:53;74.87;;;72.43;;
13605;SDS011;6874;52.084;5.090;2023-07-08T02:40:20;76.07;;;73.60;;
13605;SDS011;6874;52.084;5.090;2023-07-08T02:42:46;73.33;;;70.93;;
13605;SDS011;6874;52.084;5.090;2023-07-08T02:45:12;69.53;;;67.27;;
13605;SDS011;6874;52.084;5.090;2023-07-08T02:47:38;66.63;;;64.47;;
13605;SDS011;6874;52.084;5.090;2023-07-08T02:50:03;68.97;;;66.73;;
13605;SDS011;6874;52.084;5.090;2023-07-08T02:52:30;64.90;;;62.80;;
13605;SDS011;6874;52.084;5.090;2023-07-08T02:54:55;71.67;;;69.33;;
13605;SDS011;6874;52.084;5.090;2023-07-08T02:57:21;70.03;;;67.73;;
13605;SDS011;6874;52.084;5.090;2023-07-08T02:59:46;71.60;;;69.27;;
13605;SDS011;6874;52.084;5.090;2023-07-08T03:02:12;78.50;;;75.90;;
13605;SDS011;6874;52.084;5.090;2023-07-08T03:04:38;81.40;;;78.70;;
13605;SDS011;6874;52.084;5.090;2023-07-08T03:07:04;80.30;;;77.63;;
13605;SDS011;6874;52.084;5.090;2023-07-08T03:09:30;83.63;;;80.87;;
13605;SDS011;6874;52.084;5.090;2023-07-08T03:11:57;88.40;;;85.43;;
13605;SDS011;6874;52.084;5.090;2023-07-08T03:14:23;84.27;;;81.47;;
13605;SDS011;6874;52.084;5.090;2023-07-08T03:16:49;82.83;;;80.10;;
13605;SDS011;6874;52.084;5.090;2023-07-08T03:19:15;77.23;;;74.63;;
13605;SDS011;6874;52.084;5.090;2023-07-08T03:21:42;70.97;;;68.57;;
13605;SDS011;6874;52.084;5.090;2023-07-08T03:24:11;70.60;;;68.17;;
13605;SDS011;6874;52.084;5.090;2023-07-08T03:26:38;64.90;;;62.70;;
13605;SDS011;6874;52.084;5.090;2023-07-08T03:29:03;63.10;;;60.93;;
13605;SDS011;6874;52.084;5.090;2023-07-08T03:31:30;60.73;;;58.63;;
13605;SDS011;6874;52.084;5.090;2023-07-08T03:33:55;56.40;;;54.50;;
13605;SDS011;6874;52.084;5.090;2023-07-08T03:36:21;59.00;;;57.00;;
13605;SDS011;6874;52.084;5.090;2023-07-08T03:38:53;58.37;;;56.37;;
13605;SDS011;6874;52.084;5.090;2023-07-08T03:41:20;57.20;;;55.20;;
13605;SDS011;6874;52.084;5.090;2023-07-08T03:43:46;60.73;;;58.73;;
13605;SDS011;6874;52.084;5.090;2023-07-08T03:46:12;58.17;;;56.23;;
13605;SDS011;6874;52.084;5.090;2023-07-08T03:48:39;53.50;;;51.70;;
13605;SDS011;6874;52.084;5.090;2023-07-08T03:51:13;55.40;;;53.60;;
13605;SDS011;6874;52.084;5.090;2023-07-08T03:54:00;49.63;;;48.00;;
13605;SDS011;6874;52.084;5.090;2023-07-08T03:56:26;53.53;;;51.77;;
13605;SDS011;6874;52.084;5.090;2023-07-08T03:58:52;52.10;;;50.37;;
13605;SDS011;6874;52.084;5.090;2023-07-08T04:01:18;54.43;;;52.63;;
13605;SDS011;6874;52.084;5.090;2023-07-08T04:03:51;46.03;;;44.50;;
13605;SDS011;6874;52.084;5.090;2023-07-08T04:06:18;44.90;;;43.43;;
13605;SDS011;6874;52.084;5.090;2023-07-08T04:08:44;42.30;;;40.93;;
13605;SDS011;6874;52.084;5.090;2023-07-08T04:11:13;41.60;;;40.27;;
13605;SDS011;6874;52.084;5.090;2023-07-08T04:13:41;39.37;;;38.10;;
13605;SDS011;6874;52.084;5.090;2023-07-08T04:16:06;38.40;;;37.17;;
13605;SDS011;6874;52.084;5.090;2023-07-08T04:18:33;38.90;;;37.67;;
13605;SDS011;6874;52.084;5.090;2023-07-08T04:20:59;38.90;;;37.67;;
13605;SDS011;6874;52.084;5.090;2023-07-08T04:23:25;33.83;;;32.73;;
13605;SDS011;6874;52.084;5.090;2023-07-08T04:25:51;34.97;;;33.87;;
13605;SDS011;6874;52.084;5.090;2023-07-08T04:28:19;35.20;;;34.10;;
13605;SDS011;6874;52.084;5.090;2023-07-08T04:30:47;32.93;;;31.90;;
13605;SDS011;6874;52.084;5.090;2023-07-08T04:33:13;34.60;;;33.50;;
13605;SDS011;6874;52.084;5.090;2023-07-08T04:35:40;36.37;;;35.20;;
13605;SDS011;6874;52.084;5.090;2023-07-08T04:38:17;34.97;;;33.83;;
13605;SDS011;6874;52.084;5.090;2023-07-08T04:40:46;33.60;;;32.53;;
13605;SDS011;6874;52.084;5.090;2023-07-08T04:43:12;33.60;;;32.53;;
13605;SDS011;6874;52.084;5.090;2023-07-08T04:45:39;36.40;;;35.23;;
13605;SDS011;6874;52.084;5.090;2023-07-08T04:48:07;36.23;;;35.07;;
13605;SDS011;6874;52.084;5.090;2023-07-08T04:50:40;34.87;;;33.77;;
13605;SDS011;6874;52.084;5.090;2023-07-08T04:53:07;36.97;;;35.80;;
13605;SDS011;6874;52.084;5.090;2023-07-08T04:55:34;37.77;;;36.57;;
13605;SDS011;6874;52.084;5.090;2023-07-08T04:58:00;34.07;;;32.97;;
13605;SDS011;6874;52.084;5.090;2023-07-08T05:00:27;34.77;;;33.67;;
13605;SDS011;6874;52.084;5.090;2023-07-08T05:02:52;33.63;;;32.57;;
13605;SDS011;6874;52.084;5.090;2023-07-08T05:05:19;33.50;;;32.43;;
13605;SDS011;6874;52.084;5.090;2023-07-08T05:07:45;33.67;;;32.60;;
13605;SDS011;6874;52.084;5.090;2023-07-08T05:10:11;31.27;;;30.27;;
13605;SDS011;6874;52.084;5.090;2023-07-08T05:12:37;32.90;;;31.83;;
13605;SDS011;6874;52.084;5.090;2023-07-08T05:15:03;31.40;;;30.40;;
13605;SDS011;6874;52.084;5.090;2023-07-08T05:17:29;29.10;;;28.17;;
13605;SDS011;6874;52.084;5.090;2023-07-08T05:19:55;29.57;;;28.63;;
13605;SDS011;6874;52.084;5.090;2023-07-08T05:22:22;29.50;;;28.57;;
13605;SDS011;6874;52.084;5.090;2023-07-08T05:24:51;29.27;;;28.33;;
13605;SDS011;6874;52.084;5.090;2023-07-08T05:27:17;28.90;;;27.97;;
13605;SDS011;6874;52.084;5.090;2023-07-08T05:29:45;26.80;;;25.93;;
13605;SDS011;6874;52.084;5.090;2023-07-08T05:32:11;28.93;;;28.00;;
13605;SDS011;6874;52.084;5.090;2023-07-08T05:34:37;28.90;;;28.00;;
13605;SDS011;6874;52.084;5.090;2023-07-08T05:37:03;29.60;;;28.67;;
13605;SDS011;6874;52.084;5.090;2023-07-08T05:39:29;31.00;;;30.00;;
13605;SDS011;6874;52.084;5.090;2023-07-08T05:41:55;29.97;;;29.00;;
13605;SDS011;6874;52.084;5.090;2023-07-08T05:44:21;31.67;;;30.63;;
13605;SDS011;6874;52.084;5.090;2023-07-08T05:46:47;33.27;;;32.17;;
13605;SDS011;6874;52.084;5.090;2023-07-08T05:49:14;34.13;;;33.00;;
13605;SDS011;6874;52.084;5.090;2023-07-08T05:51:39;35.83;;;34.63;;
13605;SDS011;6874;52.084;5.090;2023-07-08T05:54:05;35.23;;;34.07;;
13605;SDS011;6874;52.084;5.090;2023-07-08T05:56:31;38.30;;;37.00;;
13605;SDS011;6874;52.084;5.090;2023-07-08T05:58:57;38.53;;;37.23;;
13605;SDS011;6874;52.084;5.090;2023-07-08T06:01:23;40.30;;;39.00;;
13605;SDS011;6874;52.084;5.090;2023-07-08T06:03:48;43.90;;;42.40;;
13605;SDS011;6874;52.084;5.090;2023-07-08T06:06:14;40.00;;;38.67;;
13605;SDS011;6874;52.084;5.090;2023-07-08T06:08:40;42.87;;;41.43;;
13605;SDS011;6874;52.084;5.090;2023-07-08T06:11:06;45.23;;;43.70;;
13605;SDS011;6874;52.084;5.090;2023-07-08T06:13:32;46.77;;;45.17;;
13605;SDS011;6874;52.084;5.090;2023-07-08T06:15:57;53.20;;;51.37;;
13605;SDS011;6874;52.084;5.090;2023-07-08T06:18:23;54.37;;;52.50;;
13605;SDS011;6874;52.084;5.090;2023-07-08T06:20:52;50.97;;;49.23;;
13605;SDS011;6874;52.084;5.090;2023-07-08T06:23:22;49.90;;;48.20;;
13605;SDS011;6874;52.084;5.090;2023-07-08T06:25:48;59.23;;;57.17;;
13605;SDS011;6874;52.084;5.090;2023-07-08T06:28:14;58.13;;;56.10;;
13605;SDS011;6874;52.084;5.090;2023-07-08T06:30:39;55.40;;;53.47;;
13605;SDS011;6874;52.084;5.090;2023-07-08T06:33:05;56.00;;;54.03;;
13605;SDS011;6874;52.084;5.090;2023-07-08T06:35:31;58.53;;;56.47;;
13605;SDS011;6874;52.084;5.090;2023-07-08T06:37:56;59.93;;;57.83;;
13605;SDS011;6874;52.084;5.090;2023-07-08T06:40:22;56.80;;;54.80;;
13605;SDS011;6874;52.084;5.090;2023-07-08T06:42:48;63.33;;;61.10;;
13605;SDS011;6874;52.084;5.090;2023-07-08T06:45:13;60.20;;;58.07;;
13605;SDS011;6874;52.084;5.090;2023-07-08T06:47:39;62.27;;;60.03;;
13605;SDS011;6874;52.084;5.090;2023-07-08T06:50:05;60.07;;;57.90;;
13605;SDS011;6874;52.084;5.090;2023-07-08T06:52:32;61.40;;;59.23;;
13605;SDS011;6874;52.084;5.090;2023-07-08T06:55:00;56.63;;;54.67;;
13605;SDS011;6874;52.084;5.090;2023-07-08T06:57:27;56.40;;;54.43;;
13605;SDS011;6874;52.084;5.090;2023-07-08T06:59:53;57.10;;;55.10;;
13605;SDS011;6874;52.084;5.090;2023-07-08T07:02:18;62.67;;;60.43;;
13605;SDS011;6874;52.084;5.090;2023-07-08T07:04:45;61.67;;;59.47;;
13605;SDS011;6874;52.084;5.090;2023-07-08T07:07:11;60.30;;;58.17;;
13605;SDS011;6874;52.084;5.090;2023-07-08T07:09:37;61.03;;;58.83;;
13605;SDS011;6874;52.084;5.090;2023-07-08T07:12:02;59.20;;;57.07;;
13605;SDS011;6874;52.084;5.090;2023-07-08T07:14:30;57.50;;;55.47;;
13605;SDS011;6874;52.084;5.090;2023-07-08T07:16:56;60.30;;;58.10;;
13605;SDS011;6874;52.084;5.090;2023-07-08T07:19:21;74.70;;;71.83;;
13605;SDS011;6874;52.084;5.090;2023-07-08T07:21:47;81.47;;;78.47;;
13605;SDS011;6874;52.084;5.090;2023-07-08T07:24:12;79.10;;;76.33;;
13605;SDS011;6874;52.084;5.090;2023-07-08T07:26:38;79.10;;;76.40;;
13605;SDS011;6874;52.084;5.090;2023-07-08T07:29:04;79.93;;;77.27;;
13605;SDS011;6874;52.084;5.090;2023-07-08T07:31:30;86.53;;;83.63;;
13605;SDS011;6874;52.084;5.090;2023-07-08T07:33:57;105.83;;;102.33;;
13605;SDS011;6874;52.084;5.090;2023-07-08T07:36:24;124.07;;;119.97;;
13605;SDS011;6874;52.084;5.090;2023-07-08T07:38:49;133.40;;;129.00;;
13605;SDS011;6874;52.084;5.090;2023-07-08T07:41:15;142.80;;;138.00;;
13605;SDS011;6874;52.084;5.090;2023-07-08T07:43:41;163.93;;;158.30;;
13605;SDS011;6874;52.084;5.090;2023-07-08T07:46:07;191.17;;;184.60;;
13605;SDS011;6874;52.084;5.090;2023-07-08T07:48:33;213.07;;;205.77;;
13605;SDS011;6874;52.084;5.090;2023-07-08T07:50:59;233.27;;;225.17;;
13605;SDS011;6874;52.084;5.090;2023-07-08T07:53:25;276.50;;;266.60;;
13605;SDS011;6874;52.084;5.090;2023-07-08T07:56:00;303.73;;;292.53;;
13605;SDS011;6874;52.084;5.090;2023-07-08T07:58:28;341.50;;;328.73;;
13605;SDS011;6874;52.084;5.090;2023-07-08T08:00:54;330.70;;;318.60;;
13605;SDS011;6874;52.084;5.090;2023-07-08T08:03:20;291.50;;;281.07;;
13605;SDS011;6874;52.084;5.090;2023-07-08T08:05:46;264.27;;;255.07;;
13605;SDS011;6874;52.084;5.090;2023-07-08T08:08:13;246.00;;;237.70;;
13605;SDS011;6874;52.084;5.090;2023-07-08T08:10:38;213.87;;;206.63;;
13605;SDS011;6874;52.084;5.090;2023-07-08T08:13:04;195.77;;;189.20;;
13605;SDS011;6874;52.084;5.090;2023-07-08T08:15:30;184.50;;;178.07;;
13605;SDS011;6874;52.084;5.090;2023-07-08T08:17:55;186.47;;;179.73;;
13605;SDS011;6874;52.084;5.090;2023-07-08T08:20:23;202.00;;;194.87;;
13605;SDS011;6874;52.084;5.090;2023-07-08T08:22:50;206.33;;;199.20;;
13605;SDS011;6874;52.084;5.090;2023-07-08T08:25:16;204.70;;;197.80;;
13605;SDS011;6874;52.084;5.090;2023-07-08T08:27:43;207.80;;;200.93;;
13605;SDS011;6874;52.084;5.090;2023-07-08T08:30:09;222.17;;;214.77;;
13605;SDS011;6874;52.084;5.090;2023-07-08T08:32:35;242.60;;;234.43;;
13605;SDS011;6874;52.084;5.090;2023-07-08T08:35:00;266.70;;;257.53;;
13605;SDS011;6874;52.084;5.090;2023-07-08T08:37:26;303.57;;;293.00;;
13605;SDS011;6874;52.084;5.090;2023-07-08T08:39:52;329.10;;;317.50;;
13605;SDS011;6874;52.084;5.090;2023-07-08T08:43:03;350.93;;;338.47;;
13605;SDS011;6874;52.084;5.090;2023-07-08T08:45:09;341.57;;;329.67;;
13605;SDS011;6874;52.084;5.090;2023-07-08T08:47:45;314.70;;;303.90;;
13605;SDS011;6874;52.084;5.090;2023-07-08T08:50:24;301.17;;;290.83;;
13605;SDS011;6874;52.084;5.090;2023-07-08T08:52:53;280.33;;;270.83;;
13605;SDS011;6874;52.084;5.090;2023-07-08T08:55:20;253.97;;;245.33;;
13605;SDS011;6874;52.084;5.090;2023-07-08T09:00:56;201.47;;;194.67;;
13605;SDS011;6874;52.084;5.090;2023-07-08T09:03:51;176.20;;;170.20;;
13605;SDS011;6874;52.084;5.090;2023-07-08T09:06:27;144.87;;;139.93;;
13605;SDS011;6874;52.084;5.090;2023-07-08T09:08:56;134.77;;;130.10;;
13605;SDS011;6874;52.084;5.090;2023-07-08T09:13:55;154.13;;;148.70;;
13605;SDS011;6874;52.084;5.090;2023-07-08T09:21:49;183.93;;;177.27;;
13605;SDS011;6874;52.084;5.090;2023-07-08T09:24:26;199.87;;;192.67;;
13605;SDS011;6874;52.084;5.090;2023-07-08T09:27:01;229.30;;;221.23;;
13605;SDS011;6874;52.084;5.090;2023-07-08T09:29:27;229.43;;;221.47;;
13605;SDS011;6874;52.084;5.090;2023-07-08T09:31:53;245.17;;;236.77;;
13605;SDS011;6874;52.084;5.090;2023-07-08T09:34:23;256.50;;;247.60;;
13605;SDS011;6874;52.084;5.090;2023-07-08T09:37:03;280.13;;;270.33;;
13605;SDS011;6874;52.084;5.090;2023-07-08T09:39:57;287.50;;;277.47;;
13605;SDS011;6874;52.084;5.090;2023-07-08T09:42:27;290.87;;;280.70;;
13605;SDS011;6874;52.084;5.090;2023-07-08T09:44:57;285.63;;;275.70;;
13605;SDS011;6874;52.084;5.090;2023-07-08T09:47:33;284.40;;;274.53;;
13605;SDS011;6874;52.084;5.090;2023-07-08T09:50:00;300.87;;;290.30;;
13605;SDS011;6874;52.084;5.090;2023-07-08T09:52:40;308.60;;;297.63;;
13605;SDS011;6874;52.084;5.090;2023-07-08T09:55:10;308.70;;;297.53;;
13605;SDS011;6874;52.084;5.090;2023-07-08T09:57:36;333.17;;;320.97;;
13605;SDS011;6874;52.084;5.090;2023-07-08T10:00:06;335.67;;;323.27;;
13605;SDS011;6874;52.084;5.090;2023-07-08T10:02:41;336.73;;;324.10;;
13605;SDS011;6874;52.084;5.090;2023-07-08T10:05:17;339.43;;;326.63;;
13605;SDS011;6874;52.084;5.090;2023-07-08T10:07:54;334.47;;;321.87;;
13605;SDS011;6874;52.084;5.090;2023-07-08T10:10:55;334.73;;;322.07;;
13605;SDS011;6874;52.084;5.090;2023-07-08T10:13:20;329.27;;;316.77;;
13605;SDS011;6874;52.084;5.090;2023-07-08T10:15:54;336.40;;;323.63;;
13605;SDS011;6874;52.084;5.090;2023-07-08T10:18:27;328.40;;;316.03;;
13605;SDS011;6874;52.084;5.090;2023-07-08T10:23:27;342.03;;;329.37;;
13605;SDS011;6874;52.084;5.090;2023-07-08T10:31:40;391.13;;;376.20;;
13605;SDS011;6874;52.084;5.090;2023-07-08T10:37:15;440.27;;;422.80;;
13605;SDS011;6874;52.084;5.090;2023-07-08T10:42:54;480.93;;;461.40;;
13605;SDS011;6874;52.084;5.090;2023-07-08T10:51:19;601.97;;;575.33;;
13605;SDS011;6874;52.084;5.090;2023-07-08T10:59:05;601.90;;;574.70;;
13605;SDS011;6874;52.084;5.090;2023-07-08T11:04:42;530.17;;;507.40;;
13605;SDS011;6874;52.084;5.090;2023-07-08T11:10:44;487.67;;;467.90;;
13605;SDS011;6874;52.084;5.090;2023-07-08T11:13:18;458.23;;;440.07;;
13605;SDS011;6874;52.084;5.090;2023-07-08T11:16:05;470.23;;;450.77;;
13605;SDS011;6874;52.084;5.090;2023-07-08T11:18:41;473.80;;;454.07;;
13605;SDS011;6874;52.084;5.090;2023-07-08T11:21:14;464.03;;;444.87;;
13605;SDS011;6874;52.084;5.090;2023-07-08T11:29:02;472.70;;;453.83;;
13605;SDS011;6874;52.084;5.090;2023-07-08T11:31:35;479.40;;;460.43;;
13605;SDS011;6874;52.084;5.090;2023-07-08T11:34:01;503.60;;;483.43;;
13605;SDS011;6874;52.084;5.090;2023-07-08T11:36:28;493.73;;;474.00;;
13605;SDS011;6874;52.084;5.090;2023-07-08T11:38:56;458.03;;;440.43;;
13605;SDS011;6874;52.084;5.090;2023-07-08T11:41:26;413.33;;;398.00;;
13605;SDS011;6874;52.084;5.090;2023-07-08T11:43:56;348.13;;;335.83;;
13605;SDS011;6874;52.084;5.090;2023-07-08T11:46:25;316.03;;;305.03;;
13605;SDS011;6874;52.084;5.090;2023-07-08T11:48:54;295.90;;;285.77;;
13605;SDS011;6874;52.084;5.090;2023-07-08T11:51:26;277.93;;;268.53;;
13605;SDS011;6874;52.084;5.090;2023-07-08T11:56:30;302.50;;;292.23;;
13605;SDS011;6874;52.084;5.090;2023-07-08T11:59:22;299.93;;;289.67;;
13605;SDS011;6874;52.084;5.090;2023-07-08T12:04:17;336.77;;;324.87;;
13605;SDS011;6874;52.084;5.090;2023-07-08T12:07:11;346.00;;;333.83;;
13605;SDS011;6874;52.084;5.090;2023-07-08T12:09:44;360.07;;;347.03;;
13605;SDS011;6874;52.084;5.090;2023-07-08T12:12:28;380.63;;;366.70;;
13605;SDS011;6874;52.084;5.090;2023-07-08T12:15:01;429.57;;;413.07;;
13605;SDS011;6874;52.084;5.090;2023-07-08T12:17:37;446.30;;;428.80;;
13605;SDS011;6874;52.084;5.090;2023-07-08T12:20:05;474.70;;;455.40;;
13605;SDS011;6874;52.084;5.090;2023-07-08T12:22:42;480.83;;;460.67;;
13605;SDS011;6874;52.084;5.090;2023-07-08T12:25:10;523.07;;;499.87;;
13605;SDS011;6874;52.084;5.090;2023-07-08T12:27:39;516.00;;;492.90;;
13605;SDS011;6874;52.084;5.090;2023-07-08T12:30:04;552.90;;;526.60;;
13605;SDS011;6874;52.084;5.090;2023-07-08T12:32:30;559.00;;;532.10;;
13605;SDS011;6874;52.084;5.090;2023-07-08T12:34:57;572.70;;;544.27;;
13605;SDS011;6874;52.084;5.090;2023-07-08T12:37:24;583.77;;;554.43;;
13605;SDS011;6874;52.084;5.090;2023-07-08T12:39:55;578.73;;;549.90;;
13605;SDS011;6874;52.084;5.090;2023-07-08T12:42:25;595.67;;;565.60;;
13605;SDS011;6874;52.084;5.090;2023-07-08T12:44:51;555.37;;;527.90;;
13605;SDS011;6874;52.084;5.090;2023-07-08T12:47:19;583.13;;;553.90;;
13605;SDS011;6874;52.084;5.090;2023-07-08T12:49:45;614.30;;;582.83;;
13605;SDS011;6874;52.084;5.090;2023-07-08T12:52:23;611.77;;;580.40;;
13605;SDS011;6874;52.084;5.090;2023-07-08T12:54:49;622.67;;;590.63;;
13605;SDS011;6874;52.084;5.090;2023-07-08T12:57:16;631.43;;;599.07;;
13605;SDS011;6874;52.084;5.090;2023-07-08T12:59:42;634.57;;;601.23;;
13605;SDS011;6874;52.084;5.090;2023-07-08T13:02:17;632.03;;;598.90;;
13605;SDS011;6874;52.084;5.090;2023-07-08T13:04:53;636.30;;;603.43;;
13605;SDS011;6874;52.084;5.090;2023-07-08T13:07:32;594.70;;;565.07;;
13605;SDS011;6874;52.084;5.090;2023-07-08T13:10:06;642.93;;;609.20;;
13605;SDS011;6874;52.084;5.090;2023-07-08T13:12:34;646.13;;;612.33;;
13605;SDS011;6874;52.084;5.090;2023-07-08T13:15:03;609.83;;;579.10;;
13605;SDS011;6874;52.084;5.090;2023-07-08T13:17:33;584.13;;;555.30;;
13605;SDS011;6874;52.084;5.090;2023-07-08T13:20:02;553.57;;;527.30;;
13605;SDS011;6874;52.084;5.090;2023-07-08T13:22:28;548.43;;;522.07;;
13605;SDS011;6874;52.084;5.090;2023-07-08T13:24:59;579.73;;;551.30;;
13605;SDS011;6874;52.084;5.090;2023-07-08T13:27:26;583.43;;;554.60;;
13605;SDS011;6874;52.084;5.090;2023-07-08T13:29:52;619.67;;;587.97;;
13605;SDS011;6874;52.084;5.090;2023-07-08T13:32:19;628.30;;;596.23;;
13605;SDS011;6874;52.084;5.090;2023-07-08T13:34:48;634.17;;;601.43;;
13605;SDS011;6874;52.084;5.090;2023-07-08T13:37:15;594.03;;;564.63;;
13605;SDS011;6874;52.084;5.090;2023-07-08T13:39:43;554.50;;;527.80;;
13605;SDS011;6874;52.084;5.090;2023-07-08T13:42:11;591.70;;;562.73;;
13605;SDS011;6874;52.084;5.090;2023-07-08T13:44:46;609.57;;;579.30;;
13605;SDS011;6874;52.084;5.090;2023-07-08T13:47:20;613.10;;;582.23;;
13605;SDS011;6874;52.084;5.090;2023-07-08T13:49:47;615.00;;;583.87;;
13605;SDS011;6874;52.084;5.090;2023-07-08T13:52:17;532.57;;;507.70;;
13605;SDS011;6874;52.084;5.090;2023-07-08T13:54:53;427.13;;;408.63;;
13605;SDS011;6874;52.084;5.090;2023-07-08T13:57:23;459.00;;;438.97;;
13605;SDS011;6874;52.084;5.090;2023-07-08T13:59:54;539.47;;;514.30;;
13605;SDS011;6874;52.084;5.090;2023-07-08T14:02:21;556.67;;;530.23;;
13605;SDS011;6874;52.084;5.090;2023-07-08T14:04:49;589.77;;;561.47;;
13605;SDS011;6874;52.084;5.090;2023-07-08T14:07:18;554.37;;;528.17;;
13605;SDS011;6874;52.084;5.090;2023-07-08T14:09:45;587.07;;;559.17;;
13605;SDS011;6874;52.084;5.090;2023-07-08T14:12:11;520.37;;;496.77;;
13605;SDS011;6874;52.084;5.090;2023-07-08T14:14:37;395.13;;;378.63;;
13605;SDS011;6874;52.084;5.090;2023-07-08T14:17:03;441.80;;;422.90;;
13605;SDS011;6874;52.084;5.090;2023-07-08T14:19:30;451.43;;;432.00;;
13605;SDS011;6874;52.084;5.090;2023-07-08T14:22:00;454.77;;;435.30;;
13605;SDS011;6874;52.084;5.090;2023-07-08T14:24:32;411.57;;;394.30;;
13605;SDS011;6874;52.084;5.090;2023-07-08T14:26:57;463.70;;;443.50;;
13605;SDS011;6874;52.084;5.090;2023-07-08T14:29:23;417.37;;;400.03;;
13605;SDS011;6874;52.084;5.090;2023-07-08T14:31:49;386.87;;;370.93;;
13605;SDS011;6874;52.084;5.090;2023-07-08T14:34:22;429.10;;;410.73;;
13605;SDS011;6874;52.084;5.090;2023-07-08T14:36:50;463.50;;;443.40;;
13605;SDS011;6874;52.084;5.090;2023-07-08T14:39:16;518.43;;;494.93;;
13605;SDS011;6874;52.084;5.090;2023-07-08T14:41:43;541.63;;;516.60;;
13605;SDS011;6874;52.084;5.090;2023-07-08T14:44:25;532.10;;;508.10;;
13605;SDS011;6874;52.084;5.090;2023-07-08T14:46:58;518.73;;;495.30;;
13605;SDS011;6874;52.084;5.090;2023-07-08T14:49:24;529.80;;;505.67;;
13605;SDS011;6874;52.084;5.090;2023-07-08T14:51:50;514.17;;;491.00;;
13605;SDS011;6874;52.084;5.090;2023-07-08T14:54:20;536.50;;;511.80;;
13605;SDS011;6874;52.084;5.090;2023-07-08T14:56:46;562.70;;;536.27;;
13605;SDS011;6874;52.084;5.090;2023-07-08T14:59:20;514.63;;;491.57;;
13605;SDS011;6874;52.084;5.090;2023-07-08T15:01:47;556.00;;;530.17;;
13605;SDS011;6874;52.084;5.090;2023-07-08T15:04:14;541.53;;;516.83;;
13605;SDS011;6874;52.084;5.090;2023-07-08T15:06:41;518.30;;;495.10;;
13605;SDS011;6874;52.084;5.090;2023-07-08T15:09:08;525.27;;;501.73;;
13605;SDS011;6874;52.084;5.090;2023-07-08T15:11:34;475.50;;;454.97;;
13605;SDS011;6874;52.084;5.090;2023-07-08T15:14:02;507.70;;;484.93;;
13605;SDS011;6874;52.084;5.090;2023-07-08T15:16:30;524.80;;;501.30;;
13605;SDS011;6874;52.084;5.090;2023-07-08T15:18:56;551.83;;;526.63;;
13605;SDS011;6874;52.084;5.090;2023-07-08T15:21:22;508.17;;;485.43;;
13605;SDS011;6874;52.084;5.090;2023-07-08T15:23:48;514.60;;;491.57;;
13605;SDS011;6874;52.084;5.090;2023-07-08T15:26:14;502.90;;;480.67;;
13605;SDS011;6874;52.084;5.090;2023-07-08T15:28:41;524.87;;;501.10;;